Asheville Regional Airport Airport (AVL)

Airport Diagram
Current Weather/Forecast (VFR Conditions)
METAR KAVL 230354Z AUTO 16003KT 10SM CLR 23/19 A3012 RMK AO2 SLP167 T02280189
TAF KAVL 222320Z 2300/2324 18005KT P6SM FEW050 FM230300 18003KT P6SM FEW170 FM231600 26004KT P6SM SCT045 PROB30 2319/2324 4SM -SHRA BR BKN045 BKN060

All Charts
General
Chart Name Download
AIRPORT DIAGRAM
TAKEOFF MINIMUMS
ALTERNATE MINIMUMS
HOT SPOT

Departures
Chart Name Download
ASHEVILLE SEVEN

Approaches
Chart Name Download
ILS OR LOC RWY 17
ILS OR LOC RWY 35
RNAV (GPS) RWY 17
RNAV (GPS) RWY 35


Inbound Traffic (Arrivals)

No inbound traffic.


Outbound Traffic (Departures)
Callsign Aircraft Rules Destination Route
AAL2311 A320/L IFR KDFW REWET LORNN MGRIF MEM J66 LIT FEWWW SEEVR4